sensor_id;sensor_type;location;lat;lon;timestamp;pressure;altitude;pressure_sealevel;temperature;humidity
78299;BME280;67556;55.656;12.590;2023-07-31T00:02:13;100551.66;;;15.08;77.94
78299;BME280;67556;55.656;12.590;2023-07-31T00:04:39;100548.03;;;15.03;78.29
78299;BME280;67556;55.656;12.590;2023-07-31T00:07:05;100558.75;;;15.03;78.49
78299;BME280;67556;55.656;12.590;2023-07-31T00:09:32;100554.28;;;15.04;78.27
78299;BME280;67556;55.656;12.590;2023-07-31T00:11:59;100550.75;;;15.06;78.47
78299;BME280;67556;55.656;12.590;2023-07-31T00:14:27;100544.44;;;15.01;78.67
78299;BME280;67556;55.656;12.590;2023-07-31T00:16:53;100554.28;;;15.02;78.41
78299;BME280;67556;55.656;12.590;2023-07-31T00:19:27;100540.88;;;15.02;78.75
78299;BME280;67556;55.656;12.590;2023-07-31T00:21:56;100539.06;;;15.01;78.99
78299;BME280;67556;55.656;12.590;2023-07-31T00:24:23;100528.34;;;15.04;79.04
78299;BME280;67556;55.656;12.590;2023-07-31T00:26:52;100542.66;;;15.00;78.96
78299;BME280;67556;55.656;12.590;2023-07-31T00:29:26;100530.94;;;14.95;79.54
78299;BME280;67556;55.656;12.590;2023-07-31T00:31:52;100537.28;;;15.03;79.28
78299;BME280;67556;55.656;12.590;2023-07-31T00:34:19;100537.25;;;14.98;79.60
78299;BME280;67556;55.656;12.590;2023-07-31T00:36:47;100533.66;;;14.98;79.85
78299;BME280;67556;55.656;12.590;2023-07-31T00:39:15;100532.72;;;14.93;80.26
78299;BME280;67556;55.656;12.590;2023-07-31T00:41:43;100537.13;;;14.88;80.54
78299;BME280;67556;55.656;12.590;2023-07-31T00:44:09;100544.31;;;14.92;80.62
78299;BME280;67556;55.656;12.590;2023-07-31T00:46:36;100539.81;;;14.89;80.67
78299;BME280;67556;55.656;12.590;2023-07-31T00:49:08;100540.75;;;14.93;80.64
78299;BME280;67556;55.656;12.590;2023-07-31T00:51:35;100530.88;;;14.90;80.90
78299;BME280;67556;55.656;12.590;2023-07-31T00:54:03;100538.06;;;14.93;80.81
78299;BME280;67556;55.656;12.590;2023-07-31T00:56:30;100534.56;;;14.97;80.92
78299;BME280;67556;55.656;12.590;2023-07-31T00:58:56;100537.19;;;14.94;80.70
78299;BME280;67556;55.656;12.590;2023-07-31T01:01:23;100545.25;;;14.95;80.72
78299;BME280;67556;55.656;12.590;2023-07-31T01:03:50;100540.69;;;14.90;80.78
78299;BME280;67556;55.656;12.590;2023-07-31T01:06:30;100536.34;;;14.98;80.60
78299;BME280;67556;55.656;12.590;2023-07-31T01:09:03;100539.88;;;14.94;80.79
78299;BME280;67556;55.656;12.590;2023-07-31T01:11:31;100539.81;;;14.89;81.27
78299;BME280;67556;55.656;12.590;2023-07-31T01:13:59;100541.59;;;14.90;81.56
78299;BME280;67556;55.656;12.590;2023-07-31T01:16:28;100544.28;;;14.89;81.68
78299;BME280;67556;55.656;12.590;2023-07-31T01:18:56;100538.03;;;14.90;81.79
78299;BME280;67556;55.656;12.590;2023-07-31T01:24:36;100536.28;;;14.92;82.24
78299;BME280;67556;55.656;12.590;2023-07-31T01:27:12;100540.81;;;14.99;82.27
78299;BME280;67556;55.656;12.590;2023-07-31T01:29:45;100535.44;;;14.97;82.37
78299;BME280;67556;55.656;12.590;2023-07-31T01:32:19;100541.69;;;14.96;82.49
78299;BME280;67556;55.656;12.590;2023-07-31T01:34:53;100529.13;;;14.92;82.39
78299;BME280;67556;55.656;12.590;2023-07-31T01:37:21;100539.88;;;14.95;82.45
78299;BME280;67556;55.656;12.590;2023-07-31T01:39:47;100534.56;;;14.97;82.40
78299;BME280;67556;55.656;12.590;2023-07-31T01:42:15;100533.72;;;15.04;82.19
78299;BME280;67556;55.656;12.590;2023-07-31T01:44:42;100533.72;;;15.04;81.76
78299;BME280;67556;55.656;12.590;2023-07-31T01:47:09;100522.16;;;15.07;81.94
78299;BME280;67556;55.656;12.590;2023-07-31T01:49:35;100514.94;;;15.01;82.52
78299;BME280;67556;55.656;12.590;2023-07-31T01:52:02;100516.00;;;15.15;81.52
78299;BME280;67556;55.656;12.590;2023-07-31T01:54:34;100514.19;;;15.13;81.75
78299;BME280;67556;55.656;12.590;2023-07-31T01:57:02;100512.34;;;15.10;81.99
78299;BME280;67556;55.656;12.590;2023-07-31T01:59:29;100508.78;;;15.11;82.17
78299;BME280;67556;55.656;12.590;2023-07-31T02:02:00;100513.19;;;15.05;82.11
78299;BME280;67556;55.656;12.590;2023-07-31T02:04:28;100505.09;;;15.00;82.49
78299;BME280;67556;55.656;12.590;2023-07-31T02:06:54;100502.47;;;15.05;82.84
78299;BME280;67556;55.656;12.590;2023-07-31T02:09:21;100502.47;;;15.08;82.13
78299;BME280;67556;55.656;12.590;2023-07-31T02:11:48;100497.13;;;15.08;82.52
78299;BME280;67556;55.656;12.590;2023-07-31T02:14:15;100501.59;;;15.07;82.65
78299;BME280;67556;55.656;12.590;2023-07-31T02:16:42;100499.84;;;15.11;82.18
78299;BME280;67556;55.656;12.590;2023-07-31T02:19:09;100499.84;;;15.09;82.04
78299;BME280;67556;55.656;12.590;2023-07-31T02:21:35;100499.78;;;15.06;82.36
78299;BME280;67556;55.656;12.590;2023-07-31T02:24:02;100497.09;;;15.05;82.25
78299;BME280;67556;55.656;12.590;2023-07-31T02:26:28;100496.22;;;15.07;82.70
78299;BME280;67556;55.656;12.590;2023-07-31T02:28:55;100494.41;;;15.05;83.10
78299;BME280;67556;55.656;12.590;2023-07-31T02:31:22;100487.31;;;15.10;83.19
78299;BME280;67556;55.656;12.590;2023-07-31T02:33:50;100493.59;;;15.10;83.30
78299;BME280;67556;55.656;12.590;2023-07-31T02:36:18;100489.97;;;15.08;83.43
78299;BME280;67556;55.656;12.590;2023-07-31T02:38:44;100491.78;;;15.09;83.36
78299;BME280;67556;55.656;12.590;2023-07-31T02:41:11;100478.34;;;15.06;83.59
78299;BME280;67556;55.656;12.590;2023-07-31T02:43:38;100481.06;;;15.09;83.63
78299;BME280;67556;55.656;12.590;2023-07-31T02:46:04;100470.34;;;15.11;83.61
78299;BME280;67556;55.656;12.590;2023-07-31T02:48:31;100469.38;;;15.07;83.66
78299;BME280;67556;55.656;12.590;2023-07-31T02:50:59;100459.50;;;15.02;84.00
78299;BME280;67556;55.656;12.590;2023-07-31T02:53:27;100455.97;;;15.07;83.87
78299;BME280;67556;55.656;12.590;2023-07-31T02:55:54;100464.13;;;15.16;83.87
78299;BME280;67556;55.656;12.590;2023-07-31T02:58:20;100469.50;;;15.16;84.09
78299;BME280;67556;55.656;12.590;2023-07-31T03:03:22;100466.91;;;15.22;83.79
78299;BME280;67556;55.656;12.590;2023-07-31T03:05:48;100473.16;;;15.25;83.76
78299;BME280;67556;55.656;12.590;2023-07-31T03:08:16;100474.03;;;15.22;84.01
78299;BME280;67556;55.656;12.590;2023-07-31T03:10:42;100468.69;;;15.23;84.46
78299;BME280;67556;55.656;12.590;2023-07-31T03:13:09;100466.81;;;15.16;85.05
78299;BME280;67556;55.656;12.590;2023-07-31T03:15:35;100470.47;;;15.23;84.78
78299;BME280;67556;55.656;12.590;2023-07-31T03:18:01;100465.16;;;15.28;84.47
78299;BME280;67556;55.656;12.590;2023-07-31T03:20:28;100470.41;;;15.17;85.64
78299;BME280;67556;55.656;12.590;2023-07-31T03:22:54;100455.22;;;15.17;86.02
78299;BME280;67556;55.656;12.590;2023-07-31T03:25:23;100451.66;;;15.18;85.93
78299;BME280;67556;55.656;12.590;2023-07-31T03:27:49;100461.47;;;15.18;86.16
78299;BME280;67556;55.656;12.590;2023-07-31T03:30:16;100464.13;;;15.13;86.69
78299;BME280;67556;55.656;12.590;2023-07-31T03:32:42;100461.47;;;15.18;86.39
78299;BME280;67556;55.656;12.590;2023-07-31T03:35:09;100458.75;;;15.16;86.68
78299;BME280;67556;55.656;12.590;2023-07-31T03:37:35;100443.59;;;15.17;86.52
78299;BME280;67556;55.656;12.590;2023-07-31T03:40:03;100451.69;;;15.25;86.22
78299;BME280;67556;55.656;12.590;2023-07-31T03:42:33;100458.06;;;15.34;85.85
78299;BME280;67556;55.656;12.590;2023-07-31T03:45:00;100454.56;;;15.41;85.87
78299;BME280;67556;55.656;12.590;2023-07-31T03:47:26;100462.59;;;15.38;85.59
78299;BME280;67556;55.656;12.590;2023-07-31T03:49:53;100450.88;;;15.32;86.32
78299;BME280;67556;55.656;12.590;2023-07-31T03:52:19;100447.34;;;15.34;85.91
78299;BME280;67556;55.656;12.590;2023-07-31T03:54:48;100454.53;;;15.40;85.84
78299;BME280;67556;55.656;12.590;2023-07-31T03:57:14;100447.31;;;15.31;85.89
78299;BME280;67556;55.656;12.590;2023-07-31T03:59:42;100446.50;;;15.40;86.09
78299;BME280;67556;55.656;12.590;2023-07-31T04:02:10;100447.34;;;15.34;86.06
78299;BME280;67556;55.656;12.590;2023-07-31T04:04:36;100448.25;;;15.35;86.19
78299;BME280;67556;55.656;12.590;2023-07-31T04:07:03;100441.00;;;15.28;86.07
78299;BME280;67556;55.656;12.590;2023-07-31T04:09:31;100437.47;;;15.32;85.97
78299;BME280;67556;55.656;12.590;2023-07-31T04:11:58;100434.81;;;15.36;86.05
78299;BME280;67556;55.656;12.590;2023-07-31T04:14:26;100438.50;;;15.44;85.54
78299;BME280;67556;55.656;12.590;2023-07-31T04:16:56;100429.53;;;15.45;85.27
78299;BME280;67556;55.656;12.590;2023-07-31T04:19:22;100431.28;;;15.40;85.51
78299;BME280;67556;55.656;12.590;2023-07-31T04:21:50;100432.25;;;15.47;85.61
78299;BME280;67556;55.656;12.590;2023-07-31T04:24:16;100426.84;;;15.44;85.46
78299;BME280;67556;55.656;12.590;2023-07-31T04:26:49;100424.13;;;15.39;85.37
78299;BME280;67556;55.656;12.590;2023-07-31T04:29:15;100424.13;;;15.39;85.46
78299;BME280;67556;55.656;12.590;2023-07-31T04:31:42;100419.69;;;15.43;85.16
78299;BME280;67556;55.656;12.590;2023-07-31T04:34:09;100417.88;;;15.42;85.25
78299;BME280;67556;55.656;12.590;2023-07-31T04:36:36;100421.53;;;15.47;84.63
78299;BME280;67556;55.656;12.590;2023-07-31T04:39:03;100424.13;;;15.39;85.14
78299;BME280;67556;55.656;12.590;2023-07-31T04:41:29;100405.34;;;15.41;84.99
78299;BME280;67556;55.656;12.590;2023-07-31T04:43:56;100406.25;;;15.38;84.68
78299;BME280;67556;55.656;12.590;2023-07-31T04:46:22;100409.81;;;15.40;84.77
78299;BME280;67556;55.656;12.590;2023-07-31T04:48:49;100413.47;;;15.48;84.61
78299;BME280;67556;55.656;12.590;2023-07-31T04:51:16;100394.69;;;15.47;84.42
78299;BME280;67556;55.656;12.590;2023-07-31T04:53:43;100401.81;;;15.45;84.43
78299;BME280;67556;55.656;12.590;2023-07-31T04:56:09;100403.66;;;15.51;84.25
78299;BME280;67556;55.656;12.590;2023-07-31T04:58:37;100403.75;;;15.63;83.70
78299;BME280;67556;55.656;12.590;2023-07-31T05:01:03;100399.31;;;15.63;83.68
78299;BME280;67556;55.656;12.590;2023-07-31T05:03:29;100406.56;;;15.72;83.01
78299;BME280;67556;55.656;12.590;2023-07-31T05:06:02;100400.25;;;15.68;83.10
78299;BME280;67556;55.656;12.590;2023-07-31T05:08:29;100397.59;;;15.75;83.24
78299;BME280;67556;55.656;12.590;2023-07-31T05:10:56;100409.31;;;15.83;82.69
78299;BME280;67556;55.656;12.590;2023-07-31T05:13:23;100403.03;;;15.84;82.79
78299;BME280;67556;55.656;12.590;2023-07-31T05:15:50;100399.50;;;15.88;82.74
78299;BME280;67556;55.656;12.590;2023-07-31T05:18:16;100396.72;;;15.76;83.37
78299;BME280;67556;55.656;12.590;2023-07-31T05:20:43;100401.25;;;15.81;83.60
78299;BME280;67556;55.656;12.590;2023-07-31T05:23:09;100398.56;;;15.81;83.60
78299;BME280;67556;55.656;12.590;2023-07-31T05:25:37;100394.94;;;15.79;83.46
78299;BME280;67556;55.656;12.590;2023-07-31T05:28:04;100391.41;;;15.82;83.35
78299;BME280;67556;55.656;12.590;2023-07-31T05:30:31;100395.06;;;15.93;83.04
78299;BME280;67556;55.656;12.590;2023-07-31T05:32:57;100390.59;;;15.95;82.95
78299;BME280;67556;55.656;12.590;2023-07-31T05:35:23;100386.16;;;16.00;82.89
78299;BME280;67556;55.656;12.590;2023-07-31T05:37:50;100388.84;;;15.99;83.03
78299;BME280;67556;55.656;12.590;2023-07-31T05:40:17;100386.19;;;16.06;83.06
78299;BME280;67556;55.656;12.590;2023-07-31T05:42:44;100378.13;;;16.09;82.44
78299;BME280;67556;55.656;12.590;2023-07-31T05:45:11;100378.97;;;16.01;82.36
78299;BME280;67556;55.656;12.590;2023-07-31T05:47:38;100379.03;;;16.08;82.69
78299;BME280;67556;55.656;12.590;2023-07-31T05:50:05;100392.44;;;16.02;82.47
78299;BME280;67556;55.656;12.590;2023-07-31T05:52:32;100382.56;;;16.01;82.73
78299;BME280;67556;55.656;12.590;2023-07-31T05:54:58;100377.28;;;16.10;82.25
78299;BME280;67556;55.656;12.590;2023-07-31T05:57:24;100379.13;;;16.24;81.29
78299;BME280;67556;55.656;12.590;2023-07-31T05:59:52;100385.44;;;16.35;80.31
78299;BME280;67556;55.656;12.590;2023-07-31T06:02:19;100379.22;;;16.42;80.05
78299;BME280;67556;55.656;12.590;2023-07-31T06:04:45;100381.88;;;16.37;79.90
78299;BME280;67556;55.656;12.590;2023-07-31T06:07:12;100382.75;;;16.35;79.58
78299;BME280;67556;55.656;12.590;2023-07-31T06:09:38;100376.50;;;16.31;79.89
78299;BME280;67556;55.656;12.590;2023-07-31T06:12:05;100375.59;;;16.32;79.73
78299;BME280;67556;55.656;12.590;2023-07-31T06:14:33;100373.78;;;16.33;80.21
78299;BME280;67556;55.656;12.590;2023-07-31T06:17:00;100377.41;;;16.38;79.59
78299;BME280;67556;55.656;12.590;2023-07-31T06:19:27;100385.50;;;16.39;79.86
78299;BME280;67556;55.656;12.590;2023-07-31T06:21:53;100387.22;;;16.34;80.08
78299;BME280;67556;55.656;12.590;2023-07-31T06:24:21;100386.28;;;16.25;79.55
78299;BME280;67556;55.656;12.590;2023-07-31T06:26:47;100380.91;;;16.21;80.20
78299;BME280;67556;55.656;12.590;2023-07-31T06:29:15;100375.50;;;16.15;80.71
78299;BME280;67556;55.656;12.590;2023-07-31T06:31:42;100370.19;;;16.28;80.36
78299;BME280;67556;55.656;12.590;2023-07-31T06:34:10;100367.56;;;16.35;80.35
78299;BME280;67556;55.656;12.590;2023-07-31T06:36:36;100375.66;;;16.49;80.16
78299;BME280;67556;55.656;12.590;2023-07-31T06:39:03;100368.50;;;16.43;80.42
78299;BME280;67556;55.656;12.590;2023-07-31T06:41:30;100363.09;;;16.45;79.94
78299;BME280;67556;55.656;12.590;2023-07-31T06:43:56;100358.63;;;16.47;80.33
78299;BME280;67556;55.656;12.590;2023-07-31T06:46:25;100355.94;;;16.44;80.48
78299;BME280;67556;55.656;12.590;2023-07-31T06:48:51;100357.75;;;16.54;79.98
78299;BME280;67556;55.656;12.590;2023-07-31T06:51:20;100364.00;;;16.52;79.97
78299;BME280;67556;55.656;12.590;2023-07-31T06:53:46;100363.13;;;16.56;80.29
78299;BME280;67556;55.656;12.590;2023-07-31T06:56:13;100360.44;;;16.50;80.62
78299;BME280;67556;55.656;12.590;2023-07-31T06:58:39;100361.34;;;16.53;81.08
78299;BME280;67556;55.656;12.590;2023-07-31T07:01:06;100366.72;;;16.53;80.61
78299;BME280;67556;55.656;12.590;2023-07-31T07:03:32;100365.78;;;16.46;81.48
78299;BME280;67556;55.656;12.590;2023-07-31T07:05:59;100359.53;;;16.44;81.87
78299;BME280;67556;55.656;12.590;2023-07-31T07:08:27;100355.84;;;16.29;82.66
78299;BME280;67556;55.656;12.590;2023-07-31T07:10:53;100364.88;;;16.43;82.67
78299;BME280;67556;55.656;12.590;2023-07-31T07:13:20;100355.00;;;16.42;82.34
78299;BME280;67556;55.656;12.590;2023-07-31T07:15:47;100357.72;;;16.51;81.79
78299;BME280;67556;55.656;12.590;2023-07-31T07:18:14;100363.13;;;16.48;80.90
78299;BME280;67556;55.656;12.590;2023-07-31T07:20:46;100355.91;;;16.38;81.08
78299;BME280;67556;55.656;12.590;2023-07-31T07:23:12;100368.47;;;16.40;80.46
78299;BME280;67556;55.656;12.590;2023-07-31T07:25:40;100355.00;;;16.37;81.20
78299;BME280;67556;55.656;12.590;2023-07-31T07:28:08;100367.56;;;16.35;81.92
78299;BME280;67556;55.656;12.590;2023-07-31T07:30:35;100372.94;;;16.35;82.97
78299;BME280;67556;55.656;12.590;2023-07-31T07:33:03;100370.28;;;16.49;83.33
78299;BME280;67556;55.656;12.590;2023-07-31T07:35:29;100354.09;;;16.34;83.47
78299;BME280;67556;55.656;12.590;2023-07-31T07:37:56;100368.41;;;16.27;84.47
78299;BME280;67556;55.656;12.590;2023-07-31T07:40:22;100356.75;;;16.28;84.58
78299;BME280;67556;55.656;12.590;2023-07-31T07:42:51;100352.25;;;16.25;85.32
78299;BME280;67556;55.656;12.590;2023-07-31T07:45:17;100348.66;;;16.25;85.38
78299;BME280;67556;55.656;12.590;2023-07-31T07:47:44;100340.56;;;16.15;85.07
78299;BME280;67556;55.656;12.590;2023-07-31T07:50:10;100343.25;;;16.15;85.70
78299;BME280;67556;55.656;12.590;2023-07-31T07:52:37;100344.16;;;16.22;84.77
78299;BME280;67556;55.656;12.590;2023-07-31T07:55:04;100339.72;;;16.30;85.47
78299;BME280;67556;55.656;12.590;2023-07-31T07:57:30;100327.09;;;16.09;86.00
78299;BME280;67556;55.656;12.590;2023-07-31T07:59:58;100339.59;;;16.01;84.96
78299;BME280;67556;55.656;12.590;2023-07-31T08:02:25;100330.63;;;16.01;85.57
78299;BME280;67556;55.656;12.590;2023-07-31T08:04:51;100337.78;;;16.00;85.86
78299;BME280;67556;55.656;12.590;2023-07-31T08:07:17;100339.59;;;16.04;86.34
78299;BME280;67556;55.656;12.590;2023-07-31T08:09:44;100345.03;;;16.18;84.71
78299;BME280;67556;55.656;12.590;2023-07-31T08:12:10;100350.50;;;16.32;85.61
78299;BME280;67556;55.656;12.590;2023-07-31T08:14:37;100341.53;;;16.27;84.46
78299;BME280;67556;55.656;12.590;2023-07-31T08:17:05;100351.44;;;16.40;84.51
78299;BME280;67556;55.656;12.590;2023-07-31T08:19:31;100339.78;;;16.47;83.83
78299;BME280;67556;55.656;12.590;2023-07-31T08:21:57;100332.66;;;16.55;83.53
78299;BME280;67556;55.656;12.590;2023-07-31T08:24:24;100322.78;;;16.43;82.82
78299;BME280;67556;55.656;12.590;2023-07-31T08:26:50;100316.53;;;16.58;83.45
78299;BME280;67556;55.656;12.590;2023-07-31T08:29:17;100316.59;;;16.69;82.88
78299;BME280;67556;55.656;12.590;2023-07-31T08:31:43;100324.69;;;16.80;82.14
78299;BME280;67556;55.656;12.590;2023-07-31T08:34:11;100312.16;;;16.77;80.77
78299;BME280;67556;55.656;12.590;2023-07-31T08:36:37;100313.88;;;16.64;80.05
78299;BME280;67556;55.656;12.590;2023-07-31T08:39:04;100305.81;;;16.70;80.26
78299;BME280;67556;55.656;12.590;2023-07-31T08:41:31;100306.72;;;16.66;78.50
78299;BME280;67556;55.656;12.590;2023-07-31T08:43:59;100288.81;;;16.76;77.14
78299;BME280;67556;55.656;12.590;2023-07-31T08:46:27;100293.31;;;16.76;76.30
78299;BME280;67556;55.656;12.590;2023-07-31T08:48:55;100299.59;;;16.98;75.27
78299;BME280;67556;55.656;12.590;2023-07-31T08:51:25;100296.06;;;17.11;75.15
78299;BME280;67556;55.656;12.590;2023-07-31T08:53:52;100286.16;;;17.31;73.89
78299;BME280;67556;55.656;12.590;2023-07-31T08:56:19;100289.75;;;17.39;73.76
78299;BME280;67556;55.656;12.590;2023-07-31T08:58:48;100294.25;;;17.45;71.50
78299;BME280;67556;55.656;12.590;2023-07-31T09:01:16;100291.53;;;17.56;72.60
78299;BME280;67556;55.656;12.590;2023-07-31T09:03:44;100287.91;;;17.64;73.74
78299;BME280;67556;55.656;12.590;2023-07-31T09:06:12;100304.97;;;17.80;74.34
78299;BME280;67556;55.656;12.590;2023-07-31T09:08:41;100287.91;;;17.95;73.76
78299;BME280;67556;55.656;12.590;2023-07-31T09:11:10;100314.81;;;17.90;72.85
78299;BME280;67556;55.656;12.590;2023-07-31T09:13:38;100282.53;;;17.70;72.88
78299;BME280;67556;55.656;12.590;2023-07-31T09:16:08;100296.88;;;17.69;72.21
78299;BME280;67556;55.656;12.590;2023-07-31T09:18:52;100289.72;;;17.56;72.72
78299;BME280;67556;55.656;12.590;2023-07-31T09:21:25;100291.50;;;17.63;74.04
78299;BME280;67556;55.656;12.590;2023-07-31T09:23:54;100295.13;;;17.59;74.12
78299;BME280;67556;55.656;12.590;2023-07-31T09:26:32;100283.47;;;17.57;74.08
78299;BME280;67556;55.656;12.590;2023-07-31T09:28:59;100291.53;;;17.62;74.35
78299;BME280;67556;55.656;12.590;2023-07-31T09:31:32;100289.75;;;17.75;73.54
78299;BME280;67556;55.656;12.590;2023-07-31T09:34:00;100288.75;;;18.02;74.06
78299;BME280;67556;55.656;12.590;2023-07-31T09:36:29;100288.72;;;18.03;72.03
78299;BME280;67556;55.656;12.590;2023-07-31T09:39:01;100280.69;;;18.00;72.07
78299;BME280;67556;55.656;12.590;2023-07-31T09:41:27;100283.31;;;18.14;70.43
78299;BME280;67556;55.656;12.590;2023-07-31T09:43:54;100273.47;;;18.08;70.17
78299;BME280;67556;55.656;12.590;2023-07-31T09:46:21;100265.28;;;18.24;71.08
78299;BME280;67556;55.656;12.590;2023-07-31T09:48:48;100270.66;;;18.37;69.76
78299;BME280;67556;55.656;12.590;2023-07-31T09:51:14;100265.06;;;18.65;69.58
78299;BME280;67556;55.656;12.590;2023-07-31T09:53:41;100261.47;;;18.75;69.28
78299;BME280;67556;55.656;12.590;2023-07-31T09:56:10;100255.13;;;18.75;69.58
78299;BME280;67556;55.656;12.590;2023-07-31T09:58:36;100251.56;;;18.73;69.21
78299;BME280;67556;55.656;12.590;2023-07-31T10:01:03;100242.47;;;18.89;67.59
78299;BME280;67556;55.656;12.590;2023-07-31T10:03:31;100237.84;;;19.03;67.52
78299;BME280;67556;55.656;12.590;2023-07-31T10:05:59;100238.66;;;19.11;66.10
78299;BME280;67556;55.656;12.590;2023-07-31T10:08:28;100248.56;;;19.11;66.54
78299;BME280;67556;55.656;12.590;2023-07-31T10:10:58;100256.84;;;18.86;67.14
78299;BME280;67556;55.656;12.590;2023-07-31T10:13:27;100248.78;;;18.88;67.49
78299;BME280;67556;55.656;12.590;2023-07-31T10:15:54;100249.53;;;19.04;68.20
78299;BME280;67556;55.656;12.590;2023-07-31T10:18:24;100237.75;;;19.14;67.83
78299;BME280;67556;55.656;12.590;2023-07-31T10:20:52;100234.00;;;19.29;67.96
78299;BME280;67556;55.656;12.590;2023-07-31T10:23:18;100233.84;;;19.47;67.54
78299;BME280;67556;55.656;12.590;2023-07-31T10:25:45;100225.78;;;19.41;67.12
78299;BME280;67556;55.656;12.590;2023-07-31T10:28:14;100233.88;;;19.41;67.62
78299;BME280;67556;55.656;12.590;2023-07-31T10:30:42;100229.50;;;19.31;67.81
78299;BME280;67556;55.656;12.590;2023-07-31T10:33:09;100224.09;;;19.29;67.50
78299;BME280;67556;55.656;12.590;2023-07-31T10:35:36;100226.75;;;19.35;67.60
78299;BME280;67556;55.656;12.590;2023-07-31T10:38:12;100223.03;;;19.45;68.01
78299;BME280;67556;55.656;12.590;2023-07-31T10:40:39;100219.50;;;19.40;68.15
78299;BME280;67556;55.656;12.590;2023-07-31T10:43:06;100208.59;;;19.47;66.62
78299;BME280;67556;55.656;12.590;2023-07-31T10:45:35;100204.88;;;19.61;66.03
78299;BME280;67556;55.656;12.590;2023-07-31T10:48:06;100206.81;;;19.45;64.92
78299;BME280;67556;55.656;12.590;2023-07-31T10:50:36;100214.22;;;19.27;65.59
78299;BME280;67556;55.656;12.590;2023-07-31T10:53:03;100191.97;;;19.00;65.52
78299;BME280;67556;55.656;12.590;2023-07-31T10:55:33;100201.91;;;18.98;66.17
78299;BME280;67556;55.656;12.590;2023-07-31T10:58:06;100194.56;;;19.14;66.92
78299;BME280;67556;55.656;12.590;2023-07-31T11:00:33;100202.41;;;19.37;67.31
78299;BME280;67556;55.656;12.590;2023-07-31T11:03:02;100204.94;;;19.54;64.92
78299;BME280;67556;55.656;12.590;2023-07-31T11:05:48;100203.91;;;19.68;62.39
78299;BME280;67556;55.656;12.590;2023-07-31T11:08:18;100200.13;;;19.85;63.15
78299;BME280;67556;55.656;12.590;2023-07-31T11:11:05;100212.13;;;19.56;63.57
78299;BME280;67556;55.656;12.590;2023-07-31T11:13:34;100202.06;;;19.71;64.41
78299;BME280;67556;55.656;12.590;2023-07-31T11:16:05;100205.56;;;19.82;64.67
78299;BME280;67556;55.656;12.590;2023-07-31T11:18:35;100202.03;;;19.77;64.87
78299;BME280;67556;55.656;12.590;2023-07-31T11:21:11;100193.75;;;19.89;64.47
78299;BME280;67556;55.656;12.590;2023-07-31T11:23:40;100200.00;;;19.94;63.90
78299;BME280;67556;55.656;12.590;2023-07-31T11:26:07;100190.03;;;19.98;64.03
78299;BME280;67556;55.656;12.590;2023-07-31T11:28:34;100192.50;;;20.16;63.90
78299;BME280;67556;55.656;12.590;2023-07-31T11:31:09;100197.69;;;20.30;60.61
78299;BME280;67556;55.656;12.590;2023-07-31T11:33:42;100192.47;;;20.17;63.05
78299;BME280;67556;55.656;12.590;2023-07-31T11:36:27;100197.09;;;20.08;63.54
78299;BME280;67556;55.656;12.590;2023-07-31T11:39:04;100196.66;;;19.74;64.52
78299;BME280;67556;55.656;12.590;2023-07-31T11:41:31;100201.28;;;19.61;64.64
78299;BME280;67556;55.656;12.590;2023-07-31T11:44:00;100185.88;;;19.71;65.38
78299;BME280;67556;55.656;12.590;2023-07-31T11:46:37;100184.09;;;19.69;65.33
78299;BME280;67556;55.656;12.590;2023-07-31T11:49:08;100184.13;;;19.65;65.73
78299;BME280;67556;55.656;12.590;2023-07-31T11:51:36;100179.69;;;19.61;65.22
78299;BME280;67556;55.656;12.590;2023-07-31T11:54:02;100205.94;;;19.45;66.21
78299;BME280;67556;55.656;12.590;2023-07-31T11:56:29;100198.19;;;19.08;66.33
78299;BME280;67556;55.656;12.590;2023-07-31T11:58:58;100206.47;;;18.87;64.16
78299;BME280;67556;55.656;12.590;2023-07-31T12:01:27;100203.94;;;18.67;66.29
78299;BME280;67556;55.656;12.590;2023-07-31T12:03:54;100210.31;;;18.52;66.21
78299;BME280;67556;55.656;12.590;2023-07-31T12:06:22;100196.94;;;18.35;68.57
78299;BME280;67556;55.656;12.590;2023-07-31T12:09:02;100194.19;;;18.43;70.25
78299;BME280;67556;55.656;12.590;2023-07-31T12:11:42;100197.75;;;18.45;71.20
78299;BME280;67556;55.656;12.590;2023-07-31T12:14:19;100196.16;;;18.16;72.17
78299;BME280;67556;55.656;12.590;2023-07-31T12:16:53;100187.16;;;18.20;73.72
78299;BME280;67556;55.656;12.590;2023-07-31T12:19:22;100194.34;;;18.18;75.65
78299;BME280;67556;55.656;12.590;2023-07-31T12:22:00;100183.47;;;18.34;73.38
78299;BME280;67556;55.656;12.590;2023-07-31T12:24:40;100182.63;;;18.26;73.58
78299;BME280;67556;55.656;12.590;2023-07-31T12:27:10;100176.34;;;18.22;72.86
78299;BME280;67556;55.656;12.590;2023-07-31T12:29:49;100172.69;;;18.31;72.65
78299;BME280;67556;55.656;12.590;2023-07-31T12:32:20;100179.84;;;18.38;71.42
78299;BME280;67556;55.656;12.590;2023-07-31T12:35:01;100193.41;;;18.24;70.41
78299;BME280;67556;55.656;12.590;2023-07-31T12:37:28;100177.31;;;18.16;70.35
78299;BME280;67556;55.656;12.590;2023-07-31T12:39:59;100174.59;;;18.13;70.88
78299;BME280;67556;55.656;12.590;2023-07-31T12:42:30;100186.38;;;17.94;71.91
78299;BME280;67556;55.656;12.590;2023-07-31T12:45:15;100168.47;;;17.85;73.05
78299;BME280;67556;55.656;12.590;2023-07-31T12:48:00;100173.91;;;17.70;73.90
78299;BME280;67556;55.656;12.590;2023-07-31T12:50:30;100164.03;;;17.64;75.56
78299;BME280;67556;55.656;12.590;2023-07-31T12:52:57;100165.84;;;17.59;76.57